createdAt,value
2018-07-21T00:01:23.897Z,65.50
2018-07-21T00:03:52.704Z,65.90
2018-07-21T00:06:21.058Z,65.90
2018-07-21T00:08:49.424Z,65.80
2018-07-21T00:11:17.881Z,66.60
2018-07-21T00:13:46.193Z,66.20
2018-07-21T00:16:14.504Z,66.50
2018-07-21T00:18:42.868Z,66.80
2018-07-21T00:21:11.196Z,67.10
2018-07-21T00:26:07.608Z,67.60
2018-07-21T00:28:35.888Z,67.70
2018-07-21T00:31:04.248Z,67.90
2018-07-21T00:33:32.580Z,68.00
2018-07-21T00:36:01.009Z,68.20
2018-07-21T00:38:29.364Z,68.40
2018-07-21T00:40:57.725Z,68.70
2018-07-21T00:43:26.068Z,69.00
2018-07-21T00:45:54.448Z,69.30
2018-07-21T00:48:22.775Z,69.40
2018-07-21T00:50:51.092Z,69.60
2018-07-21T00:53:19.472Z,69.80
2018-07-21T00:55:47.810Z,69.80
2018-07-21T00:58:16.131Z,69.90
2018-07-21T01:00:44.465Z,70.10
2018-07-21T01:03:12.846Z,70.10
2018-07-21T01:05:41.161Z,70.40
2018-07-21T01:08:09.529Z,70.50
2018-07-21T01:10:37.864Z,70.70
2018-07-21T01:13:06.196Z,70.90
2018-07-21T01:15:34.537Z,71.20
2018-07-21T01:18:02.912Z,71.40
2018-07-21T01:20:31.245Z,71.50
2018-07-21T01:22:59.643Z,71.70
2018-07-21T01:25:28.021Z,71.80
2018-07-21T01:27:56.377Z,72.00
2018-07-21T01:30:24.672Z,72.20
2018-07-21T01:32:53.088Z,72.50
2018-07-21T01:35:21.393Z,72.70
2018-07-21T01:37:49.718Z,72.90
2018-07-21T01:40:18.067Z,73.00
2018-07-21T01:42:46.378Z,73.00
2018-07-21T01:45:14.921Z,73.20
2018-07-21T01:47:43.212Z,73.30
2018-07-21T01:52:39.720Z,73.30
2018-07-21T01:55:08.053Z,73.50
2018-07-21T01:57:36.376Z,73.60
2018-07-21T02:00:05.340Z,73.70
2018-07-21T02:02:33.684Z,73.80
2018-07-21T02:05:02.024Z,73.80
2018-07-21T02:07:30.342Z,74.00
2018-07-21T02:09:58.700Z,74.20
2018-07-21T02:12:27.131Z,74.20
2018-07-21T02:14:55.449Z,75.00
2018-07-21T02:17:23.813Z,74.40
2018-07-21T02:19:52.337Z,74.40
2018-07-21T02:22:20.752Z,74.60
2018-07-21T02:24:49.125Z,74.70
2018-07-21T02:27:17.453Z,74.70
2018-07-21T02:29:45.794Z,74.90
2018-07-21T02:32:14.122Z,75.00
2018-07-21T02:34:42.519Z,75.20
2018-07-21T02:37:10.804Z,75.30
2018-07-21T02:39:39.139Z,75.40
2018-07-21T02:42:07.453Z,75.40
2018-07-21T02:44:35.899Z,75.60
2018-07-21T02:47:04.117Z,75.70
2018-07-21T02:49:32.382Z,75.70
2018-07-21T02:52:00.650Z,75.90
2018-07-21T02:54:28.886Z,75.90
2018-07-21T02:56:57.157Z,76.10
2018-07-21T02:59:25.422Z,76.20
2018-07-21T03:01:53.661Z,76.40
2018-07-21T03:04:21.913Z,76.30
2018-07-21T03:06:50.195Z,77.10
2018-07-21T03:09:18.436Z,76.50
2018-07-21T03:11:46.744Z,76.60
2018-07-21T03:14:14.989Z,76.70
2018-07-21T03:16:43.256Z,76.80
2018-07-21T03:19:11.480Z,76.80
2018-07-21T03:21:39.741Z,77.00
2018-07-21T03:24:08.009Z,77.00
2018-07-21T03:26:36.260Z,77.80
2018-07-21T03:29:04.585Z,77.20
2018-07-21T03:31:32.832Z,77.30
2018-07-21T03:34:01.089Z,77.30
2018-07-21T03:36:29.368Z,77.40
2018-07-21T03:38:57.722Z,77.60
2018-07-21T03:41:26.027Z,77.70
2018-07-21T03:43:54.247Z,77.70
2018-07-21T03:46:22.510Z,77.70
2018-07-21T03:48:50.879Z,77.90
2018-07-21T03:51:19.127Z,77.90
2018-07-21T03:53:47.425Z,78.00
2018-07-21T03:56:15.653Z,78.00
2018-07-21T03:58:43.932Z,78.00
2018-07-21T04:01:12.198Z,78.00
2018-07-21T04:03:40.472Z,78.10
2018-07-21T04:06:08.761Z,78.10
2018-07-21T04:08:37.030Z,78.20
2018-07-21T04:11:05.276Z,78.30
2018-07-21T04:13:33.541Z,78.30
2018-07-21T04:16:01.841Z,78.30
2018-07-21T04:18:30.173Z,78.30
2018-07-21T04:20:58.481Z,78.30
2018-07-21T04:23:26.736Z,78.20
2018-07-21T04:25:55.023Z,78.30
2018-07-21T04:28:23.290Z,78.30
2018-07-21T04:30:51.572Z,78.40
2018-07-21T04:33:19.790Z,78.50
2018-07-21T04:35:48.053Z,78.60
2018-07-21T04:38:16.351Z,78.60
2018-07-21T04:40:44.568Z,78.60
2018-07-21T04:43:12.817Z,78.70
2018-07-21T04:45:41.069Z,78.70
2018-07-21T04:48:09.410Z,78.70
2018-07-21T04:50:37.668Z,78.80
2018-07-21T04:53:06.284Z,78.90
2018-07-21T04:55:34.767Z,78.90
2018-07-21T04:58:03.042Z,78.90
2018-07-21T05:00:31.321Z,78.90
2018-07-21T05:02:59.613Z,78.80
2018-07-21T05:05:27.888Z,78.80
2018-07-21T05:07:56.136Z,78.60
2018-07-21T05:10:24.413Z,78.80
2018-07-21T05:12:52.620Z,78.70
2018-07-21T05:15:20.948Z,78.70
2018-07-21T05:17:49.189Z,78.60
2018-07-21T05:20:17.470Z,78.30
2018-07-21T05:22:45.802Z,78.40
2018-07-21T05:25:14.006Z,78.20
2018-07-21T05:27:42.261Z,78.10
2018-07-21T05:30:10.522Z,77.80
2018-07-21T05:32:38.804Z,77.80
2018-07-21T05:35:07.190Z,77.70
2018-07-21T05:37:35.447Z,77.50
2018-07-21T05:40:03.772Z,77.60
2018-07-21T05:42:32.040Z,77.50
2018-07-21T05:45:00.304Z,77.50
2018-07-21T05:47:28.583Z,77.10
2018-07-21T05:49:56.821Z,76.70
2018-07-21T05:52:25.065Z,76.50
2018-07-21T05:54:53.321Z,76.20
2018-07-21T05:57:21.577Z,76.10
2018-07-21T05:59:49.941Z,75.70
2018-07-21T06:02:18.310Z,75.70
2018-07-21T06:04:46.544Z,75.70
2018-07-21T06:07:14.914Z,75.60
2018-07-21T06:09:43.177Z,75.20
2018-07-21T06:12:11.566Z,75.20
2018-07-21T06:14:39.821Z,74.90
2018-07-21T06:17:08.507Z,74.70
2018-07-21T06:19:36.770Z,74.20
2018-07-21T06:22:05.072Z,74.00
2018-07-21T06:24:33.334Z,73.30
2018-07-21T06:27:01.679Z,73.10
2018-07-21T06:29:29.889Z,72.60
2018-07-21T06:31:58.385Z,72.10
2018-07-21T06:34:26.662Z,72.00
2018-07-21T06:36:54.914Z,71.70
2018-07-21T06:39:23.183Z,71.90
2018-07-21T06:41:51.421Z,71.40
2018-07-21T06:44:19.717Z,70.70
2018-07-21T06:46:47.993Z,70.10
2018-07-21T06:49:16.285Z,69.50
2018-07-21T06:51:44.529Z,69.60
2018-07-21T06:56:40.806Z,69.30
2018-07-21T06:59:09.037Z,69.10
2018-07-21T07:01:37.306Z,68.80
2018-07-21T07:04:05.622Z,68.70
2018-07-21T07:06:33.837Z,68.30
2018-07-21T07:09:02.125Z,67.80
2018-07-21T07:11:30.460Z,67.50
2018-07-21T07:13:58.724Z,65.70
2018-07-21T07:16:26.982Z,65.00
2018-07-21T07:18:55.192Z,64.80
2018-07-21T07:21:23.441Z,64.10
2018-07-21T07:26:19.685Z,62.80
2018-07-21T07:28:47.916Z,61.80
2018-07-21T07:31:16.188Z,61.50
2018-07-21T07:33:44.452Z,61.30
2018-07-21T07:36:12.773Z,61.30
2018-07-21T07:38:40.998Z,61.80
2018-07-21T07:41:09.246Z,61.60
2018-07-21T07:43:37.530Z,60.70
2018-07-21T07:46:05.837Z,60.10
2018-07-21T07:48:34.101Z,60.10
2018-07-21T07:51:02.353Z,59.00
2018-07-21T07:53:30.614Z,58.60
2018-07-21T07:55:58.850Z,58.00
2018-07-21T07:58:27.066Z,57.70
2018-07-21T08:00:55.306Z,58.10
2018-07-21T08:03:23.586Z,57.20
2018-07-21T08:05:51.871Z,56.60
2018-07-21T08:08:20.181Z,55.80
2018-07-21T08:10:48.457Z,55.80
2018-07-21T08:13:16.723Z,56.00
2018-07-21T08:15:44.939Z,56.30
2018-07-21T08:18:13.214Z,56.20
2018-07-21T08:20:41.482Z,55.00
2018-07-21T08:23:09.763Z,54.40
2018-07-21T08:25:37.996Z,53.30
2018-07-21T08:28:06.257Z,52.70
2018-07-21T08:30:34.507Z,52.60
2018-07-21T08:33:02.797Z,53.00
2018-07-21T08:35:31.050Z,52.50
2018-07-21T08:37:59.273Z,52.10
2018-07-21T08:40:27.536Z,51.60
2018-07-21T08:42:56.783Z,50.80
2018-07-21T08:45:25.013Z,51.10
2018-07-21T08:47:53.272Z,50.90
2018-07-21T08:50:21.537Z,50.50
2018-07-21T08:52:49.834Z,49.20
2018-07-21T08:55:18.138Z,48.30
2018-07-21T08:57:46.372Z,47.70
2018-07-21T09:00:14.657Z,47.40
2018-07-21T09:02:42.948Z,46.10
2018-07-21T09:05:11.213Z,45.20
2018-07-21T09:07:39.465Z,45.10
2018-07-21T09:10:07.715Z,45.00
2018-07-21T09:12:36.056Z,43.70
2018-07-21T09:15:04.611Z,43.20
2018-07-21T09:17:32.872Z,43.10
2018-07-21T09:20:01.115Z,42.70
2018-07-21T09:22:29.419Z,42.30
2018-07-21T09:24:57.704Z,42.70
2018-07-21T09:27:25.972Z,43.20
2018-07-21T09:29:54.177Z,42.90
2018-07-21T09:32:22.446Z,43.20
2018-07-21T09:34:50.682Z,43.00
2018-07-21T09:37:18.929Z,43.00
2018-07-21T09:39:47.161Z,42.50
2018-07-21T09:42:15.421Z,42.20
2018-07-21T09:44:43.653Z,42.00
2018-07-21T09:49:40.184Z,42.00
2018-07-21T09:52:08.499Z,41.60
2018-07-21T09:54:36.753Z,40.40
2018-07-21T09:57:05.009Z,39.20
2018-07-21T09:59:33.235Z,38.40
2018-07-21T10:02:01.585Z,38.10
2018-07-21T10:06:57.866Z,37.60
2018-07-21T10:09:26.117Z,38.30
2018-07-21T10:11:54.370Z,38.20
2018-07-21T10:14:22.633Z,37.50
2018-07-21T10:16:50.909Z,37.10
2018-07-21T10:19:19.243Z,37.10
2018-07-21T10:21:47.542Z,37.40
2018-07-21T10:24:21.073Z,37.90
2018-07-21T10:26:54.669Z,37.70
2018-07-21T10:29:22.897Z,37.60
2018-07-21T10:31:51.146Z,38.30
2018-07-21T10:34:19.412Z,37.00
2018-07-21T10:36:47.726Z,36.60
2018-07-21T10:39:16.051Z,35.90
2018-07-21T10:41:44.337Z,35.90
2018-07-21T10:44:13.917Z,35.90
2018-07-21T10:46:42.228Z,35.60
2018-07-21T10:49:10.521Z,35.40
2018-07-21T10:51:38.766Z,35.00
2018-07-21T10:54:07.284Z,34.70
2018-07-21T10:56:35.575Z,33.70
2018-07-21T10:59:03.898Z,33.40
2018-07-21T11:01:32.320Z,32.60
2018-07-21T11:04:01.656Z,32.30
2018-07-21T11:06:29.948Z,32.00
2018-07-21T11:08:58.219Z,31.70
2018-07-21T11:11:26.517Z,31.90
2018-07-21T11:13:54.804Z,31.90
2018-07-21T11:16:23.104Z,32.10
2018-07-21T11:18:51.342Z,32.50
2018-07-21T11:21:19.637Z,33.10
2018-07-21T11:26:15.954Z,33.20
2018-07-21T11:28:44.211Z,32.90
2018-07-21T11:31:12.478Z,33.30
2018-07-21T11:33:40.754Z,33.50
2018-07-21T11:36:09.352Z,32.90
2018-07-21T11:38:37.287Z,32.60
2018-07-21T11:41:05.961Z,32.20
2018-07-21T11:43:34.209Z,31.70
2018-07-21T11:46:02.485Z,31.60
2018-07-21T11:48:30.798Z,31.60
2018-07-21T11:50:59.052Z,31.80
2018-07-21T11:53:27.306Z,32.00
2018-07-21T11:55:55.631Z,31.10
2018-07-21T11:58:23.869Z,30.80
2018-07-21T12:00:52.308Z,30.10
2018-07-21T12:03:20.616Z,29.90
2018-07-21T12:05:48.916Z,29.90
2018-07-21T12:08:17.177Z,30.10
2018-07-21T12:10:45.468Z,30.00
2018-07-21T12:13:13.691Z,29.70
2018-07-21T12:15:45.476Z,29.50
2018-07-21T12:18:13.953Z,28.80
2018-07-21T12:20:42.405Z,28.70
2018-07-21T12:23:11.123Z,28.90
2018-07-21T12:25:39.433Z,28.90
2018-07-21T12:30:35.857Z,29.10
2018-07-21T12:33:05.515Z,29.30
2018-07-21T12:35:33.760Z,29.30
2018-07-21T12:38:02.076Z,29.50
2018-07-21T12:40:30.474Z,29.90
2018-07-21T12:44:01.481Z,30.00
2018-07-21T12:46:29.824Z,30.40
2018-07-21T12:48:58.145Z,30.70
2018-07-21T12:51:26.389Z,30.80
2018-07-21T12:53:54.959Z,30.70
2018-07-21T12:56:23.176Z,30.10
2018-07-21T12:58:51.477Z,29.40
2018-07-21T13:01:19.759Z,29.10
2018-07-21T13:03:48.031Z,28.60
2018-07-21T13:06:16.416Z,28.10
2018-07-21T13:08:44.668Z,28.10
2018-07-21T13:11:12.973Z,27.90
2018-07-21T13:13:41.309Z,27.90
2018-07-21T13:16:09.569Z,27.40
2018-07-21T13:18:37.902Z,27.00
2018-07-21T13:21:06.206Z,27.00
2018-07-21T13:23:34.509Z,26.50
2018-07-21T13:26:02.918Z,26.60
2018-07-21T13:28:31.715Z,26.90
2018-07-21T13:30:59.990Z,27.10
2018-07-21T13:33:28.244Z,26.90
2018-07-21T13:35:56.505Z,26.60
2018-07-21T13:38:25.004Z,26.10
2018-07-21T13:40:53.245Z,25.80
2018-07-21T13:43:21.621Z,26.10
2018-07-21T13:45:49.891Z,26.10
2018-07-21T13:48:18.199Z,25.90
2018-07-21T13:50:46.557Z,25.90
2018-07-21T13:53:14.844Z,25.50
2018-07-21T13:55:43.253Z,25.80
2018-07-21T13:58:11.582Z,26.30
2018-07-21T14:00:39.930Z,26.70
2018-07-21T14:03:08.250Z,26.80
2018-07-21T14:05:36.529Z,27.00
2018-07-21T14:08:04.810Z,27.20
2018-07-21T14:10:34.470Z,27.10
2018-07-21T14:13:05.277Z,26.50
2018-07-21T14:15:33.629Z,26.50
2018-07-21T14:18:01.885Z,26.40
2018-07-21T14:20:30.136Z,26.20
2018-07-21T14:22:58.384Z,26.70
2018-07-21T14:25:26.610Z,27.00
2018-07-21T14:27:54.905Z,27.80
2018-07-21T14:30:23.198Z,28.40
2018-07-21T14:32:51.397Z,29.00
2018-07-21T14:35:19.641Z,29.80
2018-07-21T14:37:47.893Z,30.50
2018-07-21T14:40:16.149Z,31.00
2018-07-21T14:42:44.408Z,31.40
2018-07-21T14:45:12.669Z,31.30
2018-07-21T14:47:40.896Z,31.70
2018-07-21T14:50:09.134Z,32.10
2018-07-21T14:52:37.396Z,32.90
2018-07-21T14:55:05.783Z,32.70
2018-07-21T14:57:33.950Z,32.80
2018-07-21T15:00:02.236Z,33.40
2018-07-21T15:02:30.487Z,34.00
2018-07-21T15:04:58.773Z,34.10
2018-07-21T15:07:27.011Z,33.90
2018-07-21T15:09:55.341Z,34.00
2018-07-21T15:12:23.751Z,34.50
2018-07-21T15:14:52.115Z,35.00
2018-07-21T15:17:20.369Z,35.50
2018-07-21T15:19:50.572Z,35.50
2018-07-21T15:22:18.849Z,35.40
2018-07-21T15:24:47.151Z,35.70
2018-07-21T15:27:15.597Z,35.90
2018-07-21T15:29:43.838Z,36.30
2018-07-21T15:32:12.094Z,36.80
2018-07-21T15:34:40.341Z,37.00
2018-07-21T15:37:08.856Z,37.00
2018-07-21T15:39:37.124Z,37.40
2018-07-21T15:42:05.473Z,37.80
2018-07-21T15:44:33.768Z,37.50
2018-07-21T15:47:02.000Z,37.90
2018-07-21T15:49:30.241Z,38.10
2018-07-21T15:51:58.546Z,38.60
2018-07-21T15:54:26.840Z,39.00
2018-07-21T15:56:55.057Z,39.50
2018-07-21T15:59:23.292Z,39.50
2018-07-21T16:01:51.561Z,40.00
2018-07-21T16:04:19.889Z,40.90
2018-07-21T16:06:48.161Z,40.20
2018-07-21T16:09:16.417Z,40.50
2018-07-21T16:14:12.729Z,41.50
2018-07-21T16:16:40.992Z,40.80
2018-07-21T16:19:09.246Z,41.30
2018-07-21T16:21:37.488Z,42.20
2018-07-21T16:24:05.805Z,42.90
2018-07-21T16:26:34.040Z,43.10
2018-07-21T16:29:02.316Z,43.40
2018-07-21T16:31:30.572Z,43.80
2018-07-21T16:33:58.854Z,43.60
2018-07-21T16:36:27.074Z,42.90
2018-07-21T16:38:55.429Z,42.80
2018-07-21T16:41:23.682Z,44.10
2018-07-21T16:43:51.945Z,42.70
2018-07-21T16:46:20.210Z,42.00
2018-07-21T16:48:48.665Z,42.30
2018-07-21T16:51:16.981Z,43.00
2018-07-21T16:53:45.268Z,44.00
2018-07-21T16:58:41.502Z,44.60
2018-07-21T17:01:09.780Z,44.30
2018-07-21T17:03:38.072Z,44.10
2018-07-21T17:06:06.353Z,44.50
2018-07-21T17:08:34.633Z,44.40
2018-07-21T17:11:02.884Z,44.90
2018-07-21T17:16:05.904Z,45.30
2018-07-21T17:21:02.175Z,46.10
2018-07-21T17:23:30.452Z,46.00
2018-07-21T17:25:58.708Z,46.20
2018-07-21T17:28:26.953Z,46.50
2018-07-21T17:30:55.189Z,46.80
2018-07-21T17:33:23.425Z,46.70
2018-07-21T17:35:51.713Z,46.70
2018-07-21T17:38:19.901Z,47.00
2018-07-21T17:40:48.246Z,47.20
2018-07-21T17:43:16.475Z,47.50
2018-07-21T17:45:44.709Z,47.80
2018-07-21T17:48:12.961Z,48.40
2018-07-21T17:50:41.184Z,48.80
2018-07-21T17:53:09.447Z,49.10
2018-07-21T17:55:37.725Z,49.20
2018-07-21T17:58:06.019Z,49.10
2018-07-21T18:00:34.260Z,49.40
2018-07-21T18:03:02.537Z,49.70
2018-07-21T18:05:30.886Z,49.00
2018-07-21T18:07:59.142Z,48.90
2018-07-21T18:10:27.424Z,49.10
2018-07-21T18:12:55.661Z,49.80
2018-07-21T18:15:23.953Z,50.30
2018-07-21T18:17:52.225Z,50.30
2018-07-21T18:20:20.521Z,49.70
2018-07-21T18:22:48.809Z,49.40
2018-07-21T18:25:17.186Z,49.30
2018-07-21T18:27:45.443Z,49.40
2018-07-21T18:30:13.735Z,50.30
2018-07-21T18:32:41.992Z,51.60
2018-07-21T18:35:10.269Z,52.10
2018-07-21T18:37:38.569Z,51.70
2018-07-21T18:40:06.860Z,51.90
2018-07-21T18:42:35.137Z,52.60
2018-07-21T18:45:03.432Z,53.10
2018-07-21T18:47:32.597Z,53.20
2018-07-21T18:50:00.816Z,53.30
2018-07-21T18:52:29.071Z,53.50
2018-07-21T18:54:57.401Z,53.80
2018-07-21T18:57:25.676Z,54.30
2018-07-21T18:59:54.002Z,54.40
2018-07-21T19:02:22.208Z,54.60
2018-07-21T19:04:50.441Z,54.70
2018-07-21T19:07:18.685Z,54.60
2018-07-21T19:09:46.960Z,54.80
2018-07-21T19:12:20.626Z,55.20
2018-07-21T19:14:48.856Z,56.00
2018-07-21T19:17:17.128Z,55.30
2018-07-21T19:19:50.697Z,55.40
2018-07-21T19:22:18.904Z,55.70
2018-07-21T19:24:47.161Z,55.90
2018-07-21T19:27:20.793Z,56.10
2018-07-21T19:29:49.033Z,56.20
2018-07-21T19:32:22.573Z,56.20
2018-07-21T19:34:50.818Z,56.50
2018-07-21T19:37:24.401Z,56.40
2018-07-21T19:39:52.639Z,56.30
2018-07-21T19:42:20.884Z,56.40
2018-07-21T19:44:49.145Z,56.50
2018-07-21T19:47:17.520Z,56.40
2018-07-21T19:49:45.677Z,56.50
2018-07-21T19:52:13.953Z,56.70
2018-07-21T19:54:42.256Z,56.80
2018-07-21T19:57:10.546Z,56.90
2018-07-21T19:59:38.867Z,57.10
2018-07-21T20:04:35.171Z,57.30
2018-07-21T20:07:03.457Z,57.10
2018-07-21T20:09:31.733Z,57.00
2018-07-21T20:11:59.997Z,56.60
2018-07-21T20:14:28.996Z,56.60
2018-07-21T20:16:57.255Z,56.90
2018-07-21T20:19:25.544Z,57.20
2018-07-21T20:21:53.794Z,57.70
2018-07-21T20:24:22.096Z,57.20
2018-07-21T20:26:50.357Z,57.00
2018-07-21T20:29:18.661Z,57.00
2018-07-21T20:31:46.921Z,57.20
2018-07-21T20:34:15.188Z,57.40
2018-07-21T20:36:43.481Z,57.40
2018-07-21T20:39:11.744Z,57.60
2018-07-21T20:41:40.025Z,58.00
2018-07-21T20:44:08.297Z,58.50
2018-07-21T20:46:36.749Z,58.60
2018-07-21T20:49:05.254Z,59.00
2018-07-21T20:51:33.509Z,59.10
2018-07-21T20:54:01.813Z,59.10
2018-07-21T20:56:30.347Z,59.10
2018-07-21T20:58:58.600Z,59.10
2018-07-21T21:01:26.882Z,59.50
2018-07-21T21:03:55.399Z,59.80
2018-07-21T21:06:23.854Z,60.10
2018-07-21T21:08:52.069Z,60.30
2018-07-21T21:11:20.338Z,60.50
2018-07-21T21:13:48.800Z,60.70
2018-07-21T21:16:22.897Z,60.80
2018-07-21T21:18:51.214Z,60.70
2018-07-21T21:21:19.493Z,60.70
2018-07-21T21:23:47.752Z,60.90
2018-07-21T21:26:15.986Z,61.40
2018-07-21T21:28:44.320Z,62.00
2018-07-21T21:31:12.576Z,62.30
2018-07-21T21:33:41.029Z,62.50
2018-07-21T21:36:09.274Z,62.80
2018-07-21T21:38:37.545Z,63.10
2018-07-21T21:41:05.828Z,63.40
2018-07-21T21:43:34.102Z,63.50
2018-07-21T21:46:02.372Z,63.80
2018-07-21T21:48:30.717Z,63.90
2018-07-21T21:50:59.033Z,64.20
2018-07-21T21:53:27.298Z,64.20
2018-07-21T21:55:55.589Z,64.40
2018-07-21T21:58:23.968Z,64.70
2018-07-21T22:01:05.207Z,64.90
2018-07-21T22:03:33.499Z,64.80
2018-07-21T22:06:02.091Z,65.10
2018-07-21T22:08:31.209Z,65.30
2018-07-21T22:10:59.542Z,65.50
2018-07-21T22:13:28.494Z,65.80
2018-07-21T22:15:57.056Z,65.80
2018-07-21T22:18:25.465Z,65.50
2018-07-21T22:20:53.741Z,65.40
2018-07-21T22:23:22.064Z,65.30
2018-07-21T22:25:50.356Z,65.20
2018-07-21T22:28:18.572Z,65.10
2018-07-21T22:30:46.872Z,65.10
2018-07-21T22:33:15.103Z,65.00
2018-07-21T22:35:43.352Z,64.90
2018-07-21T22:38:11.614Z,64.70
2018-07-21T22:40:39.892Z,64.70
2018-07-21T22:43:08.108Z,64.90
2018-07-21T22:45:36.341Z,64.60
2018-07-21T22:48:04.630Z,64.60
2018-07-21T22:50:32.929Z,64.90
2018-07-21T22:53:01.209Z,64.90
2018-07-21T22:55:29.480Z,65.10
2018-07-21T22:57:57.744Z,65.20
2018-07-21T23:00:26.041Z,65.00
2018-07-21T23:02:54.297Z,65.00
2018-07-21T23:05:22.584Z,65.10
2018-07-21T23:07:50.841Z,65.00
2018-07-21T23:10:19.111Z,65.00
2018-07-21T23:12:47.456Z,64.70
2018-07-21T23:15:15.720Z,64.70
2018-07-21T23:17:43.955Z,65.40
2018-07-21T23:20:12.229Z,64.90
2018-07-21T23:22:40.446Z,65.20
2018-07-21T23:25:08.720Z,65.10
2018-07-21T23:27:36.948Z,65.20
2018-07-21T23:30:05.488Z,65.20
2018-07-21T23:32:33.853Z,65.60
2018-07-21T23:35:02.009Z,65.70
2018-07-21T23:37:30.624Z,65.60
2018-07-21T23:39:58.888Z,65.50
2018-07-21T23:42:27.120Z,65.40
2018-07-21T23:44:55.388Z,65.40
2018-07-21T23:47:23.625Z,65.50
2018-07-21T23:49:52.046Z,65.30
2018-07-21T23:52:20.294Z,65.20
2018-07-21T23:54:48.512Z,65.10
2018-07-21T23:57:16.770Z,65.20
2018-07-21T23:59:45.031Z,65.20
